EJU24AC EHAM-EDDF
Flight info
| Callsign | EJU24AC |
|---|---|
| Flight time | 0h 55m |
| Altitude | 35000 |
| Route | EDUPO Z739 MISGO DCT DIXAT DIXAT1A |
| Aircraft | A20N/M-SDE2E3FGHIRWXY/LB1 |
Departure
| Time | 2026-05-07 15:34 |
|---|---|
| Airport | Amsterdam Airport Schiphol (EHAM) |
Arrival
| Time | 2026-05-07 16:29 |
|---|---|
| Airport | Frankfurt Main Airport (EDDF) |
| Time | Latitude | Longitude | Altitude | Speed | Heading |
|---|---|---|---|---|---|
| 2026-05-07 14:28 | 52.31072 | 4.75564 | 3 ft | 0 kts | 147° |
| 2026-05-07 15:19 | 52.31073 | 4.75562 | 3 ft | 2 kts | 148° |
| 2026-05-07 15:19 | 52.31085 | 4.75544 | 3 ft | 2 kts | 124° |
| 2026-05-07 15:20 | 52.31092 | 4.75524 | 2 ft | 2 kts | 109° |
| 2026-05-07 15:20 | 52.31095 | 4.75501 | 2 ft | 2 kts | 92° |
| 2026-05-07 15:20 | 52.31094 | 4.75475 | 2 ft | 2 kts | 74° |
| 2026-05-07 15:20 | 52.31088 | 4.75452 | 1 ft | 1 kts | 56° |
| 2026-05-07 15:21 | 52.31086 | 4.75448 | 1 ft | 0 kts | 54° |
| 2026-05-07 15:28 | 52.31086 | 4.75449 | 1 ft | 0 kts | 54° |
| 2026-05-07 15:28 | 52.31088 | 4.75452 | 1 ft | 0 kts | 54° |
| 2026-05-07 15:28 | 52.31091 | 4.75459 | 1 ft | 2 kts | 54° |
| 2026-05-07 15:28 | 52.31109 | 4.75486 | 2 ft | 3 kts | 32° |
| 2026-05-07 15:29 | 52.31134 | 4.75495 | 2 ft | 5 kts | 359° |
| 2026-05-07 15:29 | 52.31183 | 4.75492 | 2 ft | 9 kts | 357° |
| 2026-05-07 15:29 | 52.31249 | 4.75487 | 2 ft | 11 kts | 358° |
| 2026-05-07 15:29 | 52.31324 | 4.75481 | 2 ft | 12 kts | 358° |
| 2026-05-07 15:30 | 52.31403 | 4.75473 | 1 ft | 13 kts | 356° |
| 2026-05-07 15:30 | 52.31480 | 4.75464 | 1 ft | 5 kts | 350° |
| 2026-05-07 15:30 | 52.31509 | 4.75416 | 0 ft | 8 kts | 285° |
| 2026-05-07 15:30 | 52.31509 | 4.75298 | 0 ft | 11 kts | 266° |
| 2026-05-07 15:31 | 52.31503 | 4.75157 | -1 ft | 12 kts | 267° |
| 2026-05-07 15:31 | 52.31499 | 4.74993 | -4 ft | 15 kts | 267° |
| 2026-05-07 15:31 | 52.31495 | 4.74867 | -4 ft | 8 kts | 267° |
| 2026-05-07 15:31 | 52.31492 | 4.74758 | -5 ft | 7 kts | 268° |
| 2026-05-07 15:32 | 52.31498 | 4.74697 | -6 ft | 7 kts | 297° |
| 2026-05-07 15:32 | 52.31538 | 4.74664 | -7 ft | 5 kts | 356° |
| 2026-05-07 15:32 | 52.31581 | 4.74660 | -7 ft | 8 kts | 358° |
| 2026-05-07 15:32 | 52.31635 | 4.74671 | -7 ft | 8 kts | 20° |
| 2026-05-07 15:33 | 52.31663 | 4.74752 | -7 ft | 10 kts | 84° |
| 2026-05-07 15:33 | 52.31665 | 4.74782 | -7 ft | 0 kts | 88° |
| 2026-05-07 15:33 | 52.31673 | 4.75050 | -6 ft | 62 kts | 86° |
| 2026-05-07 15:33 | 52.31712 | 4.76040 | -8 ft | 127 kts | 86° |
| 2026-05-07 15:34 | 52.31763 | 4.77624 | 107 ft | 168 kts | 87° |
| 2026-05-07 15:34 | 52.31804 | 4.79360 | 735 ft | 169 kts | 86° |
| 2026-05-07 15:34 | 52.31860 | 4.81145 | 1506 ft | 160 kts | 84° |
| 2026-05-07 15:34 | 52.31924 | 4.82856 | 1787 ft | 168 kts | 84° |
| 2026-05-07 15:35 | 52.31994 | 4.84662 | 2202 ft | 183 kts | 84° |
| 2026-05-07 15:35 | 52.31959 | 4.86620 | 2673 ft | 197 kts | 97° |
| 2026-05-07 15:35 | 52.31583 | 4.88681 | 3176 ft | 212 kts | 109° |
| 2026-05-07 15:35 | 52.31044 | 4.90785 | 3635 ft | 229 kts | 112° |
| 2026-05-07 15:36 | 52.30444 | 4.93012 | 4228 ft | 240 kts | 113° |
| 2026-05-07 15:36 | 52.29813 | 4.95409 | 4888 ft | 251 kts | 110° |
| 2026-05-07 15:36 | 52.29263 | 4.98013 | 5600 ft | 262 kts | 106° |
| 2026-05-07 15:36 | 52.28751 | 5.00894 | 6511 ft | 267 kts | 106° |
| 2026-05-07 15:37 | 52.28250 | 5.03765 | 7416 ft | 271 kts | 106° |
| 2026-05-07 15:37 | 52.27760 | 5.06577 | 8251 ft | 275 kts | 106° |
| 2026-05-07 15:37 | 52.27254 | 5.09481 | 9058 ft | 280 kts | 106° |
| 2026-05-07 15:37 | 52.26728 | 5.12487 | 9892 ft | 286 kts | 106° |
| 2026-05-07 15:38 | 52.26190 | 5.15557 | 10627 ft | 294 kts | 106° |
| 2026-05-07 15:38 | 52.25632 | 5.18739 | 11146 ft | 308 kts | 106° |
| 2026-05-07 15:38 | 52.25043 | 5.22081 | 11752 ft | 318 kts | 107° |
| 2026-05-07 15:38 | 52.24234 | 5.25531 | 12532 ft | 324 kts | 115° |
| 2026-05-07 15:39 | 52.23193 | 5.28556 | 13283 ft | 328 kts | 123° |
| 2026-05-07 15:39 | 52.21967 | 5.31464 | 14019 ft | 332 kts | 125° |
| 2026-05-07 15:39 | 52.20712 | 5.34324 | 14708 ft | 336 kts | 126° |
| 2026-05-07 15:39 | 52.19439 | 5.37210 | 15410 ft | 340 kts | 126° |
| 2026-05-07 15:40 | 52.18141 | 5.40164 | 16116 ft | 343 kts | 126° |
| 2026-05-07 15:40 | 52.16827 | 5.43165 | 16808 ft | 347 kts | 126° |
| 2026-05-07 15:40 | 52.15506 | 5.46189 | 17486 ft | 350 kts | 126° |
| 2026-05-07 15:40 | 52.14130 | 5.49337 | 18143 ft | 354 kts | 126° |
| 2026-05-07 15:41 | 52.12735 | 5.52526 | 18801 ft | 358 kts | 126° |
| 2026-05-07 15:41 | 52.11291 | 5.55827 | 19471 ft | 362 kts | 126° |
| 2026-05-07 15:41 | 52.09851 | 5.59115 | 20113 ft | 365 kts | 126° |
| 2026-05-07 15:41 | 52.08378 | 5.62471 | 20735 ft | 369 kts | 126° |
| 2026-05-07 15:42 | 52.06890 | 5.65848 | 21361 ft | 372 kts | 128° |
| 2026-05-07 15:42 | 52.05293 | 5.69156 | 21979 ft | 375 kts | 131° |
| 2026-05-07 15:42 | 52.03602 | 5.72340 | 22579 ft | 378 kts | 133° |
| 2026-05-07 15:42 | 52.01932 | 5.75446 | 23149 ft | 381 kts | 133° |
| 2026-05-07 15:43 | 52.00253 | 5.78564 | 23699 ft | 384 kts | 133° |
| 2026-05-07 15:43 | 51.98558 | 5.81712 | 24250 ft | 387 kts | 133° |
| 2026-05-07 15:43 | 51.96827 | 5.84933 | 24790 ft | 390 kts | 133° |
| 2026-05-07 15:43 | 51.95068 | 5.88219 | 25045 ft | 393 kts | 133° |
| 2026-05-07 15:44 | 51.93317 | 5.91491 | 25044 ft | 392 kts | 133° |
| 2026-05-07 15:44 | 51.91555 | 5.94779 | 25043 ft | 392 kts | 133° |
| 2026-05-07 15:44 | 51.89783 | 5.98078 | 25043 ft | 391 kts | 133° |
| 2026-05-07 15:44 | 51.88024 | 6.01347 | 25041 ft | 391 kts | 133° |
| 2026-05-07 15:45 | 51.86261 | 6.04617 | 25038 ft | 392 kts | 132° |
| 2026-05-07 15:45 | 51.84491 | 6.07893 | 25038 ft | 392 kts | 133° |
| 2026-05-07 15:45 | 51.82694 | 6.11198 | 25040 ft | 392 kts | 133° |
| 2026-05-07 15:45 | 51.80919 | 6.14455 | 25039 ft | 392 kts | 133° |
| 2026-05-07 15:46 | 51.77435 | 6.20839 | 25038 ft | 373 kts | 133° |
| 2026-05-07 15:46 | 51.75766 | 6.23892 | 25037 ft | 371 kts | 133° |
| 2026-05-07 15:46 | 51.74092 | 6.26946 | 25042 ft | 370 kts | 133° |
| 2026-05-07 15:47 | 51.72415 | 6.30003 | 25041 ft | 370 kts | 133° |
| 2026-05-07 15:47 | 51.70755 | 6.33025 | 25042 ft | 370 kts | 133° |
| 2026-05-07 15:47 | 51.69084 | 6.36063 | 25042 ft | 370 kts | 133° |
| 2026-05-07 15:47 | 51.67410 | 6.39103 | 25041 ft | 370 kts | 133° |
| 2026-05-07 15:48 | 51.65736 | 6.42139 | 25043 ft | 370 kts | 133° |
| 2026-05-07 15:48 | 51.64037 | 6.45217 | 25043 ft | 370 kts | 133° |
| 2026-05-07 15:48 | 51.62369 | 6.48237 | 25041 ft | 370 kts | 132° |
| 2026-05-07 15:48 | 51.60691 | 6.51273 | 25043 ft | 370 kts | 132° |
| 2026-05-07 15:49 | 51.59013 | 6.54307 | 25040 ft | 370 kts | 132° |
| 2026-05-07 15:49 | 51.57323 | 6.57357 | 25040 ft | 370 kts | 133° |
| 2026-05-07 15:49 | 51.55684 | 6.60314 | 25041 ft | 370 kts | 133° |
| 2026-05-07 15:49 | 51.54033 | 6.63288 | 25039 ft | 370 kts | 132° |
| 2026-05-07 15:50 | 51.52414 | 6.66198 | 25040 ft | 370 kts | 133° |
| 2026-05-07 15:50 | 51.50778 | 6.69139 | 25040 ft | 370 kts | 133° |
| 2026-05-07 15:50 | 51.49124 | 6.72106 | 25040 ft | 370 kts | 133° |
| 2026-05-07 15:50 | 51.47454 | 6.75098 | 25038 ft | 370 kts | 133° |
| 2026-05-07 15:51 | 51.45797 | 6.78064 | 25039 ft | 370 kts | 133° |
| 2026-05-07 15:51 | 51.44141 | 6.81023 | 25038 ft | 370 kts | 133° |
| 2026-05-07 15:51 | 51.42445 | 6.84050 | 25038 ft | 371 kts | 133° |
| 2026-05-07 15:51 | 51.40746 | 6.87098 | 25039 ft | 371 kts | 132° |
| 2026-05-07 15:52 | 51.39134 | 6.90247 | 25039 ft | 370 kts | 130° |
| 2026-05-07 15:52 | 51.37561 | 6.93413 | 25037 ft | 369 kts | 129° |
| 2026-05-07 15:52 | 51.36006 | 6.96551 | 25038 ft | 369 kts | 129° |
| 2026-05-07 15:52 | 51.34472 | 6.99661 | 25041 ft | 369 kts | 129° |
| 2026-05-07 15:53 | 51.32949 | 7.02755 | 25036 ft | 369 kts | 129° |
| 2026-05-07 15:53 | 51.31406 | 7.05892 | 25035 ft | 369 kts | 129° |
| 2026-05-07 15:53 | 51.29881 | 7.08989 | 25034 ft | 369 kts | 129° |
| 2026-05-07 15:53 | 51.28345 | 7.12108 | 25033 ft | 369 kts | 129° |
| 2026-05-07 15:54 | 51.26792 | 7.15265 | 25029 ft | 369 kts | 129° |
| 2026-05-07 15:54 | 51.25225 | 7.18447 | 25028 ft | 369 kts | 129° |
| 2026-05-07 15:54 | 51.23664 | 7.21613 | 25029 ft | 369 kts | 129° |
| 2026-05-07 15:54 | 51.22112 | 7.24755 | 25030 ft | 369 kts | 129° |
| 2026-05-07 15:55 | 51.20530 | 7.27953 | 25029 ft | 369 kts | 129° |
| 2026-05-07 15:55 | 51.18964 | 7.31112 | 25028 ft | 369 kts | 129° |
| 2026-05-07 15:55 | 51.17433 | 7.34222 | 25029 ft | 369 kts | 129° |
| 2026-05-07 15:55 | 51.15662 | 7.37080 | 25015 ft | 367 kts | 146° |
| 2026-05-07 15:56 | 51.13408 | 7.38798 | 25023 ft | 365 kts | 166° |
| 2026-05-07 15:56 | 51.10918 | 7.39204 | 25023 ft | 363 kts | 186° |
| 2026-05-07 15:56 | 51.08557 | 7.38231 | 25021 ft | 361 kts | 207° |
| 2026-05-07 15:56 | 51.06427 | 7.36243 | 25031 ft | 364 kts | 211° |
| 2026-05-07 15:57 | 51.04091 | 7.34795 | 25002 ft | 365 kts | 188° |
| 2026-05-07 15:57 | 51.01599 | 7.34988 | 24734 ft | 368 kts | 165° |
| 2026-05-07 15:57 | 50.99326 | 7.36803 | 24058 ft | 374 kts | 141° |
| 2026-05-07 15:57 | 50.97456 | 7.39539 | 23537 ft | 373 kts | 140° |
| 2026-05-07 15:58 | 50.95391 | 7.41829 | 23042 ft | 370 kts | 152° |
| 2026-05-07 15:58 | 50.93074 | 7.43589 | 22502 ft | 372 kts | 158° |
| 2026-05-07 15:58 | 50.90660 | 7.45070 | 21951 ft | 373 kts | 161° |
| 2026-05-07 15:58 | 50.88242 | 7.46461 | 21413 ft | 373 kts | 159° |
| 2026-05-07 15:59 | 50.85899 | 7.48141 | 20907 ft | 372 kts | 154° |
| 2026-05-07 15:59 | 50.83630 | 7.50002 | 20408 ft | 370 kts | 153° |
| 2026-05-07 15:59 | 50.81381 | 7.51867 | 20051 ft | 364 kts | 153° |
| 2026-05-07 15:59 | 50.79184 | 7.53681 | 20026 ft | 364 kts | 153° |
| 2026-05-07 16:00 | 50.76945 | 7.55515 | 20027 ft | 364 kts | 153° |
| 2026-05-07 16:00 | 50.74737 | 7.57315 | 20026 ft | 364 kts | 154° |
| 2026-05-07 16:00 | 50.72580 | 7.59069 | 19998 ft | 363 kts | 154° |
| 2026-05-07 16:00 | 50.70379 | 7.60856 | 19497 ft | 365 kts | 154° |
| 2026-05-07 16:01 | 50.68096 | 7.62706 | 18665 ft | 372 kts | 154° |
| 2026-05-07 16:01 | 50.65832 | 7.64537 | 18043 ft | 373 kts | 154° |
| 2026-05-07 16:01 | 50.63559 | 7.66376 | 17528 ft | 371 kts | 154° |
| 2026-05-07 16:01 | 50.61309 | 7.68194 | 17029 ft | 368 kts | 154° |
| 2026-05-07 16:02 | 50.59082 | 7.69993 | 16529 ft | 366 kts | 154° |
| 2026-05-07 16:02 | 50.56888 | 7.71763 | 16032 ft | 363 kts | 154° |
| 2026-05-07 16:02 | 50.54776 | 7.73463 | 15560 ft | 361 kts | 154° |
| 2026-05-07 16:02 | 50.52711 | 7.75124 | 15093 ft | 358 kts | 154° |
| 2026-05-07 16:03 | 50.50595 | 7.76825 | 14608 ft | 356 kts | 154° |
| 2026-05-07 16:03 | 50.48544 | 7.78472 | 14123 ft | 355 kts | 154° |
| 2026-05-07 16:03 | 50.46440 | 7.80157 | 13616 ft | 353 kts | 154° |
| 2026-05-07 16:03 | 50.44318 | 7.81941 | 13166 ft | 350 kts | 150° |
| 2026-05-07 16:04 | 50.42313 | 7.84000 | 12857 ft | 342 kts | 144° |
| 2026-05-07 16:04 | 50.40511 | 7.86183 | 12862 ft | 333 kts | 142° |
| 2026-05-07 16:04 | 50.38800 | 7.88497 | 12774 ft | 329 kts | 132° |
| 2026-05-07 16:04 | 50.37649 | 7.91416 | 12438 ft | 326 kts | 110° |
| 2026-05-07 16:05 | 50.37196 | 7.94709 | 11986 ft | 325 kts | 96° |
| 2026-05-07 16:05 | 50.36984 | 7.98125 | 11525 ft | 324 kts | 94° |
| 2026-05-07 16:05 | 50.36819 | 8.01541 | 11102 ft | 322 kts | 94° |
| 2026-05-07 16:05 | 50.36661 | 8.04987 | 10681 ft | 320 kts | 93° |
| 2026-05-07 16:06 | 50.36503 | 8.08400 | 10445 ft | 312 kts | 93° |
| 2026-05-07 16:06 | 50.36342 | 8.11708 | 10240 ft | 303 kts | 95° |
| 2026-05-07 16:06 | 50.36145 | 8.14914 | 9998 ft | 296 kts | 94° |
| 2026-05-07 16:06 | 50.35987 | 8.18072 | 9668 ft | 293 kts | 93° |
| 2026-05-07 16:07 | 50.35833 | 8.21218 | 9310 ft | 291 kts | 93° |
| 2026-05-07 16:07 | 50.35680 | 8.24337 | 8981 ft | 287 kts | 93° |
| 2026-05-07 16:07 | 50.35525 | 8.27419 | 8794 ft | 279 kts | 93° |
| 2026-05-07 16:07 | 50.35376 | 8.30355 | 8614 ft | 271 kts | 93° |
| 2026-05-07 16:08 | 50.35225 | 8.33269 | 8416 ft | 263 kts | 93° |
| 2026-05-07 16:08 | 50.35078 | 8.36051 | 8236 ft | 256 kts | 93° |
| 2026-05-07 16:08 | 50.34931 | 8.38784 | 8007 ft | 252 kts | 93° |
| 2026-05-07 16:08 | 50.34781 | 8.41486 | 7699 ft | 250 kts | 93° |
| 2026-05-07 16:09 | 50.34629 | 8.44181 | 7405 ft | 248 kts | 93° |
| 2026-05-07 16:09 | 50.34475 | 8.46838 | 7111 ft | 246 kts | 93° |
| 2026-05-07 16:09 | 50.34321 | 8.49486 | 7026 ft | 245 kts | 93° |
| 2026-05-07 16:09 | 50.34166 | 8.52152 | 7021 ft | 246 kts | 93° |
| 2026-05-07 16:10 | 50.34011 | 8.54807 | 7021 ft | 246 kts | 93° |
| 2026-05-07 16:10 | 50.33854 | 8.57430 | 7021 ft | 247 kts | 93° |
| 2026-05-07 16:10 | 50.33693 | 8.60102 | 7026 ft | 247 kts | 93° |
| 2026-05-07 16:10 | 50.33536 | 8.62687 | 6959 ft | 244 kts | 93° |
| 2026-05-07 16:11 | 50.33377 | 8.65268 | 6645 ft | 244 kts | 94° |
| 2026-05-07 16:11 | 50.33212 | 8.67884 | 6320 ft | 244 kts | 94° |
| 2026-05-07 16:11 | 50.33049 | 8.70419 | 6028 ft | 242 kts | 94° |
| 2026-05-07 16:11 | 50.32883 | 8.72985 | 5724 ft | 239 kts | 94° |
| 2026-05-07 16:12 | 50.32717 | 8.75512 | 5288 ft | 239 kts | 94° |
| 2026-05-07 16:12 | 50.32552 | 8.78002 | 4914 ft | 238 kts | 94° |
| 2026-05-07 16:12 | 50.32382 | 8.80556 | 4531 ft | 236 kts | 94° |
| 2026-05-07 16:12 | 50.32215 | 8.83052 | 4172 ft | 236 kts | 94° |
| 2026-05-07 16:13 | 50.32046 | 8.85559 | 3985 ft | 232 kts | 94° |
| 2026-05-07 16:13 | 50.31875 | 8.88045 | 3981 ft | 233 kts | 94° |
| 2026-05-07 16:13 | 50.31699 | 8.90585 | 3977 ft | 233 kts | 94° |
| 2026-05-07 16:13 | 50.31524 | 8.93089 | 3979 ft | 233 kts | 94° |
| 2026-05-07 16:14 | 50.31347 | 8.95590 | 3976 ft | 233 kts | 94° |
| 2026-05-07 16:14 | 50.31168 | 8.98109 | 3980 ft | 233 kts | 94° |
| 2026-05-07 16:14 | 50.30989 | 9.00594 | 3983 ft | 233 kts | 94° |
| 2026-05-07 16:14 | 50.30810 | 9.03030 | 3980 ft | 233 kts | 94° |
| 2026-05-07 16:15 | 50.30626 | 9.05523 | 3975 ft | 233 kts | 94° |
| 2026-05-07 16:15 | 50.30449 | 9.07942 | 3975 ft | 234 kts | 94° |
| 2026-05-07 16:15 | 50.30270 | 9.10426 | 3977 ft | 234 kts | 94° |
| 2026-05-07 16:15 | 50.30096 | 9.12872 | 3975 ft | 234 kts | 94° |
| 2026-05-07 16:16 | 50.29925 | 9.15313 | 3973 ft | 234 kts | 94° |
| 2026-05-07 16:16 | 50.29752 | 9.17795 | 3974 ft | 234 kts | 94° |
| 2026-05-07 16:16 | 50.29579 | 9.20276 | 3971 ft | 234 kts | 94° |
| 2026-05-07 16:16 | 50.29282 | 9.22709 | 3959 ft | 235 kts | 111° |
| 2026-05-07 16:17 | 50.28280 | 9.24701 | 3960 ft | 237 kts | 144° |
| 2026-05-07 16:17 | 50.26771 | 9.25571 | 3960 ft | 232 kts | 178° |
| 2026-05-07 16:17 | 50.25223 | 9.25057 | 3966 ft | 228 kts | 211° |
| 2026-05-07 16:17 | 50.23941 | 9.23646 | 3977 ft | 228 kts | 221° |
| 2026-05-07 16:18 | 50.22726 | 9.22030 | 3978 ft | 229 kts | 223° |
| 2026-05-07 16:18 | 50.21540 | 9.20394 | 3977 ft | 229 kts | 223° |
| 2026-05-07 16:18 | 50.20364 | 9.18759 | 3977 ft | 229 kts | 224° |
| 2026-05-07 16:18 | 50.19226 | 9.17169 | 3974 ft | 228 kts | 226° |
| 2026-05-07 16:19 | 50.18194 | 9.15467 | 3971 ft | 227 kts | 230° |
| 2026-05-07 16:19 | 50.17254 | 9.13677 | 3968 ft | 226 kts | 238° |
| 2026-05-07 16:19 | 50.16526 | 9.11722 | 3968 ft | 224 kts | 247° |
| 2026-05-07 16:19 | 50.16008 | 9.09629 | 3972 ft | 222 kts | 255° |
| 2026-05-07 16:20 | 50.15580 | 9.07449 | 3968 ft | 221 kts | 256° |
| 2026-05-07 16:20 | 50.15161 | 9.05355 | 3964 ft | 218 kts | 255° |
| 2026-05-07 16:20 | 50.14729 | 9.03340 | 3950 ft | 205 kts | 254° |
| 2026-05-07 16:20 | 50.14304 | 9.01449 | 4006 ft | 187 kts | 253° |
| 2026-05-07 16:21 | 50.13904 | 8.99730 | 3982 ft | 168 kts | 253° |
| 2026-05-07 16:21 | 50.13547 | 8.98221 | 3951 ft | 158 kts | 253° |
| 2026-05-07 16:21 | 50.13192 | 8.96730 | 3972 ft | 156 kts | 253° |
| 2026-05-07 16:21 | 50.12839 | 8.95260 | 3966 ft | 156 kts | 253° |
| 2026-05-07 16:22 | 50.12485 | 8.93793 | 3966 ft | 155 kts | 252° |
| 2026-05-07 16:22 | 50.12113 | 8.92263 | 3966 ft | 155 kts | 252° |
| 2026-05-07 16:22 | 50.11736 | 8.90716 | 3965 ft | 155 kts | 252° |
| 2026-05-07 16:22 | 50.11359 | 8.89171 | 3967 ft | 155 kts | 252° |
| 2026-05-07 16:23 | 50.10984 | 8.87634 | 3968 ft | 155 kts | 252° |
| 2026-05-07 16:23 | 50.10619 | 8.86137 | 3964 ft | 155 kts | 252° |
| 2026-05-07 16:23 | 50.10250 | 8.84624 | 3847 ft | 155 kts | 252° |
| 2026-05-07 16:23 | 50.09878 | 8.83093 | 3638 ft | 154 kts | 252° |
| 2026-05-07 16:24 | 50.09526 | 8.81646 | 3435 ft | 145 kts | 252° |
| 2026-05-07 16:24 | 50.09184 | 8.80235 | 3232 ft | 141 kts | 252° |
| 2026-05-07 16:24 | 50.08854 | 8.78868 | 3053 ft | 140 kts | 252° |
| 2026-05-07 16:24 | 50.08520 | 8.77481 | 2875 ft | 139 kts | 252° |
| 2026-05-07 16:25 | 50.08200 | 8.76151 | 2702 ft | 139 kts | 252° |
| 2026-05-07 16:25 | 50.07877 | 8.74809 | 2529 ft | 138 kts | 252° |
| 2026-05-07 16:25 | 50.07560 | 8.73490 | 2357 ft | 138 kts | 252° |
| 2026-05-07 16:25 | 50.07252 | 8.72210 | 2188 ft | 137 kts | 251° |
| 2026-05-07 16:26 | 50.06936 | 8.70895 | 2016 ft | 136 kts | 251° |
| 2026-05-07 16:26 | 50.06627 | 8.69603 | 1843 ft | 135 kts | 251° |
| 2026-05-07 16:26 | 50.06319 | 8.68303 | 1652 ft | 134 kts | 251° |
| 2026-05-07 16:26 | 50.06119 | 8.67459 | 1573 ft | 134 kts | 251° |
| 2026-05-07 16:27 | 50.05711 | 8.65779 | 1318 ft | 132 kts | 250° |
| 2026-05-07 16:27 | 50.05399 | 8.64530 | 1168 ft | 132 kts | 251° |
| 2026-05-07 16:27 | 50.05117 | 8.63287 | 1021 ft | 132 kts | 252° |
| 2026-05-07 16:27 | 50.04836 | 8.62067 | 834 ft | 131 kts | 251° |
| 2026-05-07 16:28 | 50.04546 | 8.60857 | 699 ft | 131 kts | 250° |
| 2026-05-07 16:28 | 50.04252 | 8.59646 | 532 ft | 130 kts | 250° |
| 2026-05-07 16:28 | 50.03961 | 8.58450 | 380 ft | 129 kts | 250° |
| 2026-05-07 16:28 | 50.03691 | 8.57338 | 345 ft | 99 kts | 249° |
| 2026-05-07 16:29 | 50.03524 | 8.56633 | 341 ft | 52 kts | 250° |
| 2026-05-07 16:29 | 50.03451 | 8.56324 | 339 ft | 16 kts | 251° |
| 2026-05-07 16:29 | 50.03430 | 8.56151 | 339 ft | 19 kts | 271° |
| 2026-05-07 16:29 | 50.03451 | 8.55932 | 337 ft | 23 kts | 279° |
| 2026-05-07 16:30 | 50.03475 | 8.55714 | 337 ft | 14 kts | 279° |
| 2026-05-07 16:30 | 50.03477 | 8.55692 | 337 ft | 0 kts | 280° |
| 2026-05-07 16:30 | 50.03478 | 8.55688 | 337 ft | 2 kts | 280° |
| 2026-05-07 16:30 | 50.03487 | 8.55605 | 337 ft | 0 kts | 279° |
| 2026-05-07 16:31 | 50.03488 | 8.55598 | 337 ft | 3 kts | 289° |
| 2026-05-07 16:31 | 50.03493 | 8.55584 | 337 ft | 3 kts | 313° |